This is the latest recevied weather packets stored in our database for station/object IK0OZB-10. If no packets are shown the sender has not sent any weather packets the latest 1 day(s).
| Time | Temp. | Humidity | Pressure | Rain* | Wind** | Luminosity | Snow |
|---|---|---|---|---|---|---|---|
| 1778094069 | 19.44° C | 62% | 1015 hPa | - | - | - | - |
| 1778093169 | 20° C | 61% | 1014.7 hPa | - | - | - | - |
| 1778085968 | 20° C | 61% | 1014.2 hPa | - | - | - | - |
| 1778079667 | 21.11° C | 57% | 1014.5 hPa | - | - | - | - |
| 1778078767 | 21.11° C | 59% | 1014.6 hPa | - | - | - | - |
| 1778073366 | 22.22° C | 57% | 1014.7 hPa | - | - | - | - |
| 1778072466 | 23.33° C | 55% | 1014.7 hPa | - | - | - | - |
| 1778067065 | 21.67° C | 56% | 1014.6 hPa | - | - | - | - |
| 1778066165 | 21.11° C | 56% | 1014.7 hPa | - | - | - | - |
| 1778065265 | 20.56° C | 55% | 1014.8 hPa | - | - | - | - |
| 1778060764 | 20° C | 59% | 1014.9 hPa | - | - | - | - |
| 1778059864 | 20° C | 61% | 1015 hPa | - | - | - | - |
| 1778058964 | 19.44° C | 62% | 1015 hPa | - | - | - | - |
| 1778053563 | 17.78° C | 65% | 1014.1 hPa | - | - | - | - |
| 1778052663 | 17.78° C | 66% | 1014.4 hPa | - | - | - | - |
| 1778049062 | 17.22° C | 68% | 1014.9 hPa | - | - | - | - |
| 1778048162 | 17.22° C | 69% | 1014.9 hPa | - | - | - | - |
| 1778047262 | 17.22° C | 63% | 1015 hPa | - | - | - | - |
| 1778046362 | 17.78° C | 63% | 1014.9 hPa | - | - | - | - |
| 1778045462 | 17.78° C | 66% | 1015 hPa | - | - | - | - |
| 1778042761 | 17.22° C | 67% | 1014.7 hPa | - | - | - | - |
| 1778041861 | 17.22° C | 66% | 1014.8 hPa | - | - | - | - |
| 1778040961 | 17.22° C | 66% | 1014.6 hPa | - | - | - | - |
| 1778040061 | 17.22° C | 65% | 1014.5 hPa | - | - | - | - |
| 1778039161 | 17.22° C | 62% | 1014.6 hPa | - | - | - | - |
* Rain since midnight (hover to see other rain measurements)
** Current wind speed in m/s (hover to see current wind gust speed)